Time;durP1;ratioP1;P1;durP2;ratioP2;P2;SDS_P1;SDS_P2;PMS_P1;PMS_P2;Temp;Humidity;BMP_temperature;BMP_pressure;BME280_temperature;BME280_humidity;BME280_pressure;Samples;Min_cycle;Max_cycle;Signal;HPM_P1;HPM_P2
2021/03/07 00:03:48;;;;;;;10.55;9.45;;;;;;;3.71;45.18;101314.03;10341484;28;20539;-68
2021/03/07 00:08:49;;;;;;;11.52;9.93;;;;;;;3.58;46.07;101302.22;10337062;28;20500;-68
2021/03/07 00:13:54;;;;;;;12.25;11.02;;;;;;;3.63;46.15;101299.41;10344292;28;20142;-68
2021/03/07 00:18:55;;;;;;;11.50;10.32;;;;;;;3.60;46.65;101294.25;10352869;28;20061;-67
2021/03/07 00:23:57;;;;;;;11.95;10.75;;;;;;;3.54;46.25;101285.69;10344563;28;20453;-68
2021/03/07 00:28:58;;;;;;;13.85;10.68;;;;;;;3.61;46.10;101296.00;10351582;28;20049;-67
2021/03/07 00:34:00;;;;;;;14.05;11.43;;;;;;;3.18;47.14;101285.13;10350726;28;20069;-68
2021/03/07 00:39:01;;;;;;;13.32;10.63;;;;;;;3.23;47.09;101291.13;10343864;28;20065;-67
2021/03/07 00:44:14;;;;;;;12.80;11.05;;;;;;;2.99;47.74;101274.38;10348546;28;20050;-68
2021/03/07 00:49:23;;;;;;;16.42;11.57;;;;;;;2.89;48.00;101283.47;10310684;22;20067;-67
2021/03/07 00:54:25;;;;;;;12.90;11.70;;;;;;;2.90;47.95;101277.28;10255774;28;20613;-68
2021/03/07 00:59:26;;;;;;;11.80;10.70;;;;;;;2.96;48.51;101279.72;10255295;28;20130;-64
2021/03/07 01:04:28;;;;;;;11.90;10.70;;;;;;;3.11;47.55;101249.44;10257573;28;20051;-66
2021/03/07 01:09:30;;;;;;;13.20;11.82;;;;;;;3.35;47.06;101266.16;10262175;28;20130;-66
2021/03/07 01:14:37;;;;;;;12.60;10.90;;;;;;;3.29;47.61;101258.47;10263266;28;20062;-66
2021/03/07 01:19:38;;;;;;;12.50;10.80;;;;;;;3.14;47.58;101244.91;10269440;28;20473;-67
2021/03/07 01:24:39;;;;;;;12.00;10.30;;;;;;;3.08;48.05;101258.28;10284258;28;20529;-66
2021/03/07 01:29:41;;;;;;;11.48;10.25;;;;;;;3.05;47.65;101244.34;10270933;28;20130;-66
2021/03/07 01:34:42;;;;;;;10.57;9.45;;;;;;;3.07;47.64;101243.41;10273320;28;20089;-65
2021/03/07 01:39:43;;;;;;;11.77;10.50;;;;;;;3.02;47.78;101213.78;10264704;28;20078;-66
2021/03/07 01:44:55;;;;;;;11.38;10.27;;;;;;;3.01;47.79;101217.31;10267941;28;20047;-67
2021/03/07 01:49:58;;;;;;;13.40;11.95;;;;;;;2.69;48.59;101232.38;10267845;28;20071;-65
2021/03/07 01:54:59;;;;;;;12.63;11.43;;;;;;;2.66;49.39;101219.31;10282656;28;20413;-65
2021/03/07 02:00:03;;;;;;;12.13;10.65;;;;;;;2.67;48.59;101212.28;10270030;28;20066;-68
2021/03/07 02:05:10;;;;;;;13.90;12.07;;;;;;;2.77;48.72;101211.94;10271178;28;20050;-65
2021/03/07 02:10:17;;;;;;;12.15;10.85;;;;;;;3.16;47.77;101211.50;10265411;28;20478;-67
2021/03/07 02:15:22;;;;;;;11.15;10.05;;;;;;;3.22;47.86;101199.91;10271217;28;20115;-66
2021/03/07 02:20:31;;;;;;;11.50;10.30;;;;;;;3.16;47.38;101194.88;10271578;28;20475;-67
2021/03/07 02:25:33;;;;;;;13.60;10.93;;;;;;;3.09;47.61;101175.81;10270307;28;20496;-66
2021/03/07 02:30:35;;;;;;;12.40;11.10;;;;;;;3.18;47.98;101188.66;10270306;28;20055;-66
2021/03/07 02:35:43;;;;;;;11.27;10.18;;;;;;;3.30;47.92;101187.38;10267943;28;20172;-68
2021/03/07 02:40:45;;;;;;;12.25;10.95;;;;;;;3.07;48.40;101169.75;10266048;28;20131;-66
2021/03/07 02:45:46;;;;;;;11.32;10.10;;;;;;;2.95;48.36;101175.44;10266582;28;20591;-66
2021/03/07 02:50:48;;;;;;;11.27;9.05;;;;;;;2.80;47.84;101156.59;10268677;28;20043;-66
2021/03/07 02:56:03;;;;;;;10.93;9.75;;;;;;;2.72;48.37;101142.88;10265076;28;20145;-67
2021/03/07 03:01:05;;;;;;;10.23;9.23;;;;;;;2.82;47.97;101173.22;10270946;28;20137;-66
2021/03/07 03:06:10;;;;;;;9.18;8.27;;;;;;;2.90;47.35;101162.44;10264505;28;20526;-68
2021/03/07 03:11:12;;;;;;;9.23;8.27;;;;;;;2.85;47.63;101158.22;10270927;28;20579;-65
2021/03/07 03:16:14;;;;;;;9.20;7.45;;;;;;;2.67;47.02;101138.69;10276609;28;20153;-65
2021/03/07 03:21:16;;;;;;;8.00;7.30;;;;;;;2.68;46.84;101143.88;10271103;28;20058;-66
2021/03/07 03:26:20;;;;;;;8.48;7.68;;;;;;;2.64;47.61;101142.25;10267083;28;20074;-66
2021/03/07 03:31:21;;;;;;;8.82;7.93;;;;;;;2.49;47.80;101135.72;10267095;28;20050;-66
2021/03/07 03:36:22;;;;;;;8.52;7.63;;;;;;;2.44;47.92;101122.75;10272776;28;20517;-66
2021/03/07 03:41:25;;;;;;;8.85;7.57;;;;;;;2.42;48.06;101129.00;10273308;28;20131;-65
2021/03/07 03:46:32;;;;;;;9.02;8.13;;;;;;;2.28;48.67;101132.03;10273029;28;20061;-65
2021/03/07 03:51:40;;;;;;;9.07;8.18;;;;;;;2.27;48.38;101136.44;10265008;28;20256;-65
2021/03/07 03:56:43;;;;;;;9.18;8.27;;;;;;;2.34;49.00;101133.63;10269288;28;20058;-65
2021/03/07 04:01:46;;;;;;;10.57;9.27;;;;;;;2.34;48.67;101123.94;10265046;28;20238;-63
2021/03/07 04:06:48;;;;;;;10.25;8.75;;;;;;;2.55;48.20;101121.53;10260722;28;20058;-64
2021/03/07 04:11:50;;;;;;;10.10;9.07;;;;;;;2.50;48.49;101118.22;10265584;28;20043;-65
2021/03/07 04:16:53;;;;;;;11.10;10.00;;;;;;;2.64;48.43;101130.00;10269786;28;20047;-67
2021/03/07 04:21:55;;;;;;;11.00;9.82;;;;;;;2.64;48.11;101129.13;10269563;28;20119;-65
2021/03/07 04:26:57;;;;;;;10.77;8.63;;;;;;;2.38;49.13;101132.63;10271628;28;20105;-67
2021/03/07 04:31:59;;;;;;;9.15;7.95;;;;;;;2.16;48.39;101137.69;10269090;28;20549;-65
2021/03/07 04:37:01;;;;;;;9.10;7.63;;;;;;;2.08;48.97;101130.91;10268232;28;20065;-64
2021/03/07 04:42:03;;;;;;;8.45;7.47;;;;;;;2.07;48.76;101142.34;10262705;28;20078;-65
2021/03/07 04:47:12;;;;;;;7.20;6.50;;;;;;;2.03;49.00;101119.69;10263783;28;20050;-65
2021/03/07 04:52:13;;;;;;;8.40;7.30;;;;;;;1.95;48.97;101087.53;10269844;28;20517;-65
2021/03/07 04:57:15;;;;;;;10.85;8.18;;;;;;;2.05;48.73;101123.13;10270559;28;20047;-65
2021/03/07 05:02:16;;;;;;;9.10;8.23;;;;;;;2.11;49.46;101135.19;10265684;28;20204;-64
2021/03/07 05:07:17;;;;;;;9.45;8.38;;;;;;;2.19;49.36;101129.69;10268265;28;20047;-66
2021/03/07 05:12:19;;;;;;;10.85;9.05;;;;;;;2.11;50.02;101125.53;10272972;28;20051;-65
2021/03/07 05:17:36;;;;;;;9.90;8.90;;;;;;;1.83;50.94;101114.19;10269882;28;20057;-65
2021/03/07 05:22:38;;;;;;;10.20;9.10;;;;;;;1.85;51.08;101134.25;10299341;28;20138;-64
2021/03/07 05:27:39;;;;;;;10.65;8.98;;;;;;;1.89;51.91;101127.13;10270517;28;20047;-64
2021/03/07 05:32:41;;;;;;;9.95;8.98;;;;;;;1.88;51.67;101128.91;10265022;28;20632;-64
2021/03/07 05:37:42;;;;;;;9.98;8.98;;;;;;;1.85;52.25;101120.25;10264607;28;20051;-65
2021/03/07 05:42:43;;;;;;;10.02;9.05;;;;;;;1.81;52.40;101121.25;10264674;28;20071;-65
2021/03/07 05:47:57;;;;;;;10.93;9.25;;;;;;;1.57;52.73;101110.56;10264479;28;20201;-64
2021/03/07 05:52:59;;;;;;;9.73;8.70;;;;;;;1.48;53.06;101098.56;10288772;28;20074;-65
2021/03/07 05:58:01;;;;;;;11.32;9.40;;;;;;;1.68;53.40;101120.75;10275174;28;20074;-64
2021/03/07 06:03:05;;;;;;;11.68;10.38;;;;;;;1.67;53.44;101116.44;10275351;28;20046;-64
2021/03/07 06:08:07;;;;;;;10.85;9.70;;;;;;;1.61;53.60;101114.84;10265905;28;20196;-64
2021/03/07 06:13:10;;;;;;;11.52;10.15;;;;;;;1.62;53.53;101120.94;10272323;28;20105;-64
2021/03/07 06:18:26;;;;;;;10.75;9.63;;;;;;;1.63;53.27;101107.75;10264450;28;20131;-64
2021/03/07 06:23:35;;;;;;;10.68;9.55;;;;;;;1.75;52.91;101122.28;10263134;28;20055;-64
2021/03/07 06:28:37;;;;;;;11.18;10.18;;;;;;;1.76;53.48;101103.88;10272483;28;20208;-64
2021/03/07 06:33:38;;;;;;;10.63;9.30;;;;;;;1.89;53.59;101108.72;10271871;28;20138;-66
2021/03/07 06:38:57;;;;;;;9.90;8.90;;;;;;;2.08;52.60;101103.78;10282374;28;20071;-65
2021/03/07 06:44:15;;;;;;;10.10;9.18;;;;;;;2.19;52.48;101106.94;10256801;28;20547;-65
2021/03/07 06:49:20;;;;;;;10.48;9.38;;;;;;;2.29;52.81;101107.50;10277893;28;20187;-65
2021/03/07 06:54:25;;;;;;;;;;;;;;;2.55;51.85;101109.28;10274518;28;20359;-63
2021/03/07 06:59:27;;;;;;;10.60;9.38;;;;;;;2.69;51.58;101106.19;10333095;22;20086;-67
2021/03/07 07:04:40;;;;;;;10.20;9.10;;;;;;;2.85;50.78;101111.75;10343492;28;20132;-64
2021/03/07 07:09:42;;;;;;;10.68;9.60;;;;;;;2.85;50.72;101082.81;10315804;28;20086;-66
2021/03/07 07:14:44;;;;;;;12.77;10.18;;;;;;;2.94;50.77;101103.56;10318455;28;20054;-68
2021/03/07 07:19:47;;;;;;;10.25;8.60;;;;;;;3.13;50.24;101109.00;10318227;28;20137;-68
2021/03/07 07:24:50;;;;;;;9.80;8.80;;;;;;;3.40;49.43;101093.13;10317763;28;20050;-67
2021/03/07 07:29:51;;;;;;;10.93;9.90;;;;;;;3.62;49.04;101081.78;10314904;28;20054;-68
2021/03/07 07:34:57;;;;;;;9.48;8.48;;;;;;;3.83;48.29;101086.22;10307524;28;20077;-68
2021/03/07 07:40:00;;;;;;;9.85;8.75;;;;;;;4.03;47.80;101081.94;10361066;28;20493;-69
2021/03/07 07:45:13;;;;;;;9.30;8.48;;;;;;;4.23;47.47;101074.13;10317347;28;20058;-67
2021/03/07 07:55:46;;;;;;;10.15;8.18;;;;;;;4.69;46.35;101073.09;10349303;28;20377;-68
2021/03/07 08:00:50;;;;;;;11.85;9.00;;;;;;;4.98;45.83;101070.97;10365139;28;20054;-68
2021/03/07 08:05:51;;;;;;;9.85;8.48;;;;;;;5.20;45.24;101071.72;10319220;28;20068;-68
2021/03/07 08:10:53;;;;;;;10.82;8.82;;;;;;;5.47;44.68;101063.47;10311552;28;20149;-66
2021/03/07 08:15:59;;;;;;;9.77;8.45;;;;;;;5.75;44.22;101062.19;10309182;28;20042;-69
2021/03/07 08:21:07;;;;;;;10.40;8.52;;;;;;;5.95;42.43;101050.66;10317176;28;20046;-69
2021/03/07 08:26:08;;;;;;;9.35;8.38;;;;;;;6.11;41.80;101027.00;10316930;28;20129;-68
2021/03/07 08:31:15;;;;;;;9.63;8.55;;;;;;;6.45;41.71;101033.25;10311590;28;20112;-69
2021/03/07 08:36:22;;;;;;;9.98;8.98;;;;;;;6.75;40.90;101033.47;10313311;28;20669;-68
2021/03/07 08:41:31;;;;;;;7.88;7.15;;;;;;;6.94;40.01;101036.00;10312293;28;20062;-67
2021/03/07 08:46:42;;;;;;;9.25;8.18;;;;;;;7.21;39.26;101035.47;10309272;28;20074;-66
2021/03/07 08:51:46;;;;;;;9.18;7.18;;;;;;;7.40;39.54;101022.94;10312182;28;20496;-69
2021/03/07 08:56:53;;;;;;;8.30;7.40;;;;;;;7.79;38.06;101021.66;10316253;28;20050;-70
2021/03/07 09:01:55;;;;;;;8.55;7.72;;;;;;;7.86;37.93;101013.34;10311479;28;20050;-71
2021/03/07 09:06:56;;;;;;;8.30;7.50;;;;;;;8.35;37.40;101002.56;10312302;28;20520;-72
2021/03/07 09:12:05;;;;;;;7.32;6.63;;;;;;;7.67;38.55;101005.59;10307003;28;20062;-68
2021/03/07 09:17:07;;;;;;;8.30;7.20;;;;;;;7.65;38.56;101000.38;10307885;28;20049;-69
2021/03/07 09:22:25;;;;;;;7.88;6.85;;;;;;;8.37;37.12;100987.38;10309087;28;20054;-69
2021/03/07 09:27:35;;;;;;;7.10;6.40;;;;;;;8.67;36.53;100981.22;10333478;28;21017;-69
2021/03/07 09:32:40;;;;;;;7.47;5.80;;;;;;;9.35;34.32;100969.03;10315754;28;20076;-70
2021/03/07 09:37:42;;;;;;;9.50;8.50;;;;;;;9.67;33.67;100958.16;10322196;28;20132;-70
2021/03/07 09:42:56;;;;;;;6.22;5.50;;;;;;;9.77;32.35;100951.25;10317599;28;20046;-66
2021/03/07 09:47:58;;;;;;;6.20;5.60;;;;;;;10.47;31.97;100954.63;10313537;28;20065;-70
2021/03/07 09:53:00;;;;;;;10.50;6.70;;;;;;;10.94;30.71;100943.31;10316123;28;20136;-69
2021/03/07 09:58:06;;;;;;;7.00;6.28;;;;;;;11.82;29.86;100944.91;10314899;28;20069;-70
2021/03/07 10:03:21;;;;;;;6.88;6.28;;;;;;;12.31;29.16;100932.38;10313627;28;20050;-67
2021/03/07 10:08:24;;;;;;;6.65;5.72;;;;;;;12.76;28.33;100941.41;10322738;28;20298;-69
2021/03/07 10:13:25;;;;;;;6.97;6.28;;;;;;;14.11;26.26;100922.38;10313228;28;20050;-67
2021/03/07 10:18:26;;;;;;;6.38;5.78;;;;;;;17.01;22.48;100915.94;10312035;28;20057;-65
2021/03/07 10:23:29;;;;;;;5.80;5.18;;;;;;;19.06;19.90;100896.06;10315070;28;20496;-67
2021/03/07 10:28:34;;;;;;;6.22;5.63;;;;;;;19.96;18.10;100894.53;10316139;28;20145;-68
2021/03/07 10:33:36;;;;;;;6.10;5.50;;;;;;;18.52;19.32;100896.28;10357956;28;20073;-69
2021/03/07 10:38:49;;;;;;;4.68;4.28;;;;;;;18.56;19.40;100886.03;10325319;28;20500;-69
2021/03/07 10:43:56;;;;;;;5.22;4.70;;;;;;;19.13;17.94;100874.69;10326644;28;20132;-68
2021/03/07 10:49:00;;;;;;;10.57;9.73;;;;;;;21.50;16.83;100879.00;10325177;28;20132;-69
2021/03/07 10:54:03;;;;;;;6.93;5.90;;;;;;;24.77;13.81;100862.16;10344916;28;20065;-71
2021/03/07 10:59:05;;;;;;;4.93;4.53;;;;;;;27.29;11.76;100847.75;10331474;28;20054;-69
2021/03/07 11:04:06;;;;;;;4.10;3.80;;;;;;;30.20;9.70;100833.72;10312368;28;20045;-66
2021/03/07 11:09:07;;;;;;;3.67;3.30;;;;;;;31.11;9.22;100833.19;10302663;28;20304;-67
2021/03/07 11:14:08;;;;;;;3.97;3.67;;;;;;;30.63;8.29;100823.41;10327266;28;20132;-70
2021/03/07 11:19:10;;;;;;;3.72;3.42;;;;;;;30.85;8.02;100815.31;10312712;28;20057;-69
2021/03/07 11:24:11;;;;;;;3.42;3.15;;;;;;;30.63;7.93;100807.75;10307695;28;20052;-70
2021/03/07 11:29:12;;;;;;;3.47;3.17;;;;;;;31.42;7.49;100810.88;10309216;28;20058;-69
2021/03/07 11:34:13;;;;;;;;;;;;;;;32.48;6.78;100811.94;10312622;28;20136;-69
2021/03/07 11:39:14;;;;;;;3.13;2.83;;;;;;;33.66;6.24;100799.38;10309465;28;20308;-68
2021/03/07 11:44:16;;;;;;;3.58;3.10;;;;;;;33.52;6.44;100789.88;10310795;28;20141;-69
2021/03/07 11:49:20;;;;;;;3.00;2.80;;;;;;;33.54;5.71;100788.53;10308576;28;20248;-71
2021/03/07 11:54:22;;;;;;;3.50;2.85;;;;;;;34.18;5.42;100776.53;10313327;28;20069;-71
2021/03/07 11:59:23;;;;;;;3.08;2.83;;;;;;;35.00;5.20;100764.94;10306232;28;20064;-70
2021/03/07 12:04:25;;;;;;;2.88;2.53;;;;;;;36.48;4.59;100751.13;10311516;28;20074;-68
2021/03/07 12:09:26;;;;;;;2.80;2.60;;;;;;;36.77;4.16;100745.72;10316880;28;20065;-71
2021/03/07 12:14:27;;;;;;;3.15;2.85;;;;;;;36.02;4.54;100737.47;10324706;28;20052;-69
2021/03/07 12:19:29;;;;;;;2.95;2.50;;;;;;;36.18;4.46;100736.28;10323332;28;20096;-71
2021/03/07 12:24:30;;;;;;;2.53;2.33;;;;;;;35.70;4.91;100717.31;10311941;28;20575;-70
2021/03/07 12:29:33;;;;;;;3.00;2.80;;;;;;;36.76;4.82;100712.72;10300357;28;20084;-72
2021/03/07 12:34:35;;;;;;;2.92;2.72;;;;;;;37.48;3.96;100712.94;10299871;28;20058;-72
2021/03/07 12:39:36;;;;;;;2.97;2.67;;;;;;;38.22;3.87;100691.56;10302622;28;20050;-71
2021/03/07 12:44:37;;;;;;;2.92;2.72;;;;;;;36.98;3.62;100693.69;10309250;28;20046;-70
2021/03/07 12:49:39;;;;;;;2.85;2.65;;;;;;;37.51;3.85;100694.88;10311532;28;20407;-68
2021/03/07 12:54:41;;;;;;;2.58;2.38;;;;;;;38.22;3.63;100661.00;10307228;28;20064;-70
2021/03/07 12:59:42;;;;;;;2.60;2.40;;;;;;;38.97;3.29;100656.50;10310417;28;20046;-71
2021/03/07 13:04:43;;;;;;;2.45;2.25;;;;;;;37.50;3.34;100659.88;10309931;28;20047;-69
2021/03/07 13:09:44;;;;;;;2.58;2.33;;;;;;;38.10;3.14;100640.00;10317779;28;20140;-71
2021/03/07 13:14:46;;;;;;;2.75;2.55;;;;;;;37.75;3.44;100627.44;10303176;28;20336;-71
2021/03/07 13:19:47;;;;;;;2.60;2.40;;;;;;;37.98;3.69;100626.56;10309898;28;20141;-70
2021/03/07 13:24:48;;;;;;;2.33;2.13;;;;;;;38.01;3.43;100625.97;10281294;22;20121;-58
2021/03/07 13:29:49;;;;;;;2.72;2.53;;;;;;;37.85;3.53;100611.47;10315117;28;20137;-58
2021/03/07 13:34:51;;;;;;;2.47;2.28;;;;;;;37.52;3.93;100607.69;10319859;28;20088;-58
2021/03/07 13:39:52;;;;;;;2.90;2.70;;;;;;;37.16;4.05;100599.75;10319532;28;20133;-58
2021/03/07 13:44:53;;;;;;;2.95;2.75;;;;;;;37.72;4.18;100578.03;10296924;28;20133;-58
2021/03/07 13:49:55;;;;;;;2.75;2.55;;;;;;;37.51;4.13;100586.59;10319901;28;20116;-58
2021/03/07 13:54:56;;;;;;;3.20;2.58;;;;;;;37.39;3.75;100580.66;10317892;28;20848;-59
2021/03/07 13:59:57;;;;;;;2.97;2.55;;;;;;;36.45;4.32;100568.75;10318595;28;20185;-58
2021/03/07 14:04:58;;;;;;;4.45;4.05;;;;;;;36.54;4.72;100578.13;10325284;28;20129;-58
2021/03/07 14:09:59;;;;;;;2.60;2.40;;;;;;;36.20;4.66;100578.09;10327378;28;20192;-58
2021/03/07 14:15:02;;;;;;;3.80;2.70;;;;;;;36.43;4.45;100568.22;10327265;28;20458;-61
2021/03/07 14:20:05;;;;;;;2.58;2.05;;;;;;;36.22;4.39;100570.28;10325370;28;20772;-61
2021/03/07 14:25:08;;;;;;;2.70;2.50;;;;;;;35.35;4.47;100563.25;10325914;28;20060;-58
2021/03/07 14:30:13;;;;;;;2.40;2.20;;;;;;;33.72;5.16;100549.91;10324043;28;20144;-58
2021/03/07 14:35:15;;;;;;;2.80;2.60;;;;;;;33.45;5.42;100559.19;10320376;28;20197;-58
2021/03/07 14:40:16;;;;;;;3.00;2.28;;;;;;;32.68;5.94;100547.66;10314139;28;20255;-57
2021/03/07 14:45:19;;;;;;;2.65;2.45;;;;;;;29.07;7.56;100535.75;10323054;28;20133;-57
2021/03/07 14:50:20;;;;;;;2.50;2.20;;;;;;;25.52;9.27;100543.34;10321729;28;20198;-58
2021/03/07 14:55:22;;;;;;;2.90;2.70;;;;;;;22.46;11.60;100545.75;10317706;28;20185;-57
2021/03/07 15:00:25;;;;;;;3.78;3.35;;;;;;;20.99;13.34;100522.25;10311055;28;20142;-55
2021/03/07 15:05:26;;;;;;;4.88;4.22;;;;;;;19.66;14.45;100521.50;10320513;28;20137;-55
2021/03/07 15:10:28;;;;;;;3.80;3.50;;;;;;;18.57;15.47;100542.69;10320713;28;20050;-56
2021/03/07 15:15:30;;;;;;;4.47;4.13;;;;;;;17.69;16.40;100527.03;10321212;28;20139;-56
2021/03/07 15:20:31;;;;;;;4.93;4.43;;;;;;;16.95;17.50;100516.75;10319205;28;20192;-56
2021/03/07 15:25:32;;;;;;;5.68;5.18;;;;;;;16.25;18.20;100518.38;10321125;28;20140;-56
2021/03/07 15:30:33;;;;;;;4.30;4.00;;;;;;;15.62;18.53;100494.22;10318723;28;20913;-56
2021/03/07 15:35:35;;;;;;;4.47;4.18;;;;;;;15.08;19.48;100515.50;10321019;28;20054;-56
2021/03/07 15:40:37;;;;;;;5.10;4.65;;;;;;;14.69;19.97;100511.09;10306481;28;20061;-55
2021/03/07 15:45:38;;;;;;;4.57;4.28;;;;;;;14.54;25.72;100499.09;10314168;28;20164;-61
2021/03/07 15:50:40;;;;;;;6.13;5.53;;;;;;;14.35;21.02;100503.47;10319154;28;20053;-57
2021/03/07 15:55:41;;;;;;;5.13;4.68;;;;;;;14.17;21.36;100486.44;10319707;28;20129;-57
2021/03/07 16:00:42;;;;;;;5.25;4.85;;;;;;;13.65;21.48;100498.22;10323247;28;20485;-56
2021/03/07 16:05:43;;;;;;;5.35;4.95;;;;;;;13.52;22.06;100494.97;10322523;28;20602;-56
2021/03/07 16:10:45;;;;;;;6.22;5.72;;;;;;;13.40;21.74;100487.03;10320180;28;20116;-57
2021/03/07 16:15:47;;;;;;;7.22;6.35;;;;;;;13.27;21.56;100487.25;10319923;28;20482;-57
2021/03/07 16:20:48;;;;;;;5.32;4.93;;;;;;;12.91;22.54;100472.63;10309665;28;20800;-61
2021/03/07 16:25:49;;;;;;;5.05;4.65;;;;;;;12.82;21.78;100478.75;10322187;28;20066;-57
2021/03/07 16:30:52;;;;;;;5.25;4.85;;;;;;;12.08;22.05;100423.63;10322017;28;20073;-56
2021/03/07 16:35:54;;;;;;;4.90;4.40;;;;;;;12.32;22.11;100466.91;10320159;28;20176;-57
2021/03/07 16:40:56;;;;;;;5.75;4.75;;;;;;;12.24;22.59;100480.06;10323118;28;20138;-57
2021/03/07 16:45:57;;;;;;;5.75;5.22;;;;;;;12.10;22.67;100477.69;10320549;28;20056;-56
2021/03/07 16:50:59;;;;;;;6.30;5.70;;;;;;;11.96;22.52;100471.69;10321716;28;21386;-57
2021/03/07 16:56:03;;;;;;;6.30;5.65;;;;;;;11.79;22.79;100481.06;10322277;28;20157;-56
2021/03/07 17:01:04;;;;;;;5.90;5.30;;;;;;;11.57;22.89;100471.28;10310335;28;20046;-56
2021/03/07 17:06:06;;;;;;;6.30;5.80;;;;;;;11.31;23.69;100470.75;10311465;28;20133;-55
2021/03/07 17:11:07;;;;;;;5.45;4.93;;;;;;;11.18;23.59;100475.34;10321067;28;20183;-54
2021/03/07 17:16:12;;;;;;;5.80;5.22;;;;;;;11.00;24.02;100478.50;10319208;28;20053;-55
2021/03/07 17:21:14;;;;;;;6.25;5.65;;;;;;;10.84;24.76;100475.34;10319014;28;20054;-54
2021/03/07 17:26:24;;;;;;;9.90;7.97;;;;;;;10.67;24.82;100482.81;10320730;28;20163;-55
2021/03/07 17:31:25;;;;;;;8.68;7.75;;;;;;;10.54;26.24;100488.25;10325582;28;20212;-54
2021/03/07 17:36:27;;;;;;;9.20;7.85;;;;;;;10.17;26.64;100469.72;10316143;28;20058;-54
2021/03/07 17:41:28;;;;;;;9.70;8.80;;;;;;;10.07;27.16;100474.03;10315175;28;20456;-54
2021/03/07 17:46:30;;;;;;;10.02;9.10;;;;;;;10.04;27.46;100500.84;10324958;28;20053;-56
2021/03/07 17:51:32;;;;;;;10.93;9.13;;;;;;;9.84;27.58;100505.84;10325312;28;20097;-55
2021/03/07 17:56:46;;;;;;;24.83;22.10;;;;;;;9.98;28.39;100509.28;10322432;28;20184;-55
2021/03/07 18:01:47;;;;;;;15.75;14.15;;;;;;;9.96;28.68;100508.56;10321597;28;20093;-56
2021/03/07 18:06:49;;;;;;;11.98;10.50;;;;;;;9.87;29.17;100524.22;10322690;28;20796;-56
2021/03/07 18:11:50;;;;;;;10.38;9.35;;;;;;;9.71;29.77;100528.97;10318868;28;20448;-56
2021/03/07 18:16:52;;;;;;;15.48;13.88;;;;;;;9.54;30.17;100515.09;10323248;28;20203;-54
2021/03/07 18:21:53;;;;;;;10.00;9.00;;;;;;;9.47;30.38;100532.44;10323742;28;20076;-54
2021/03/07 18:27:09;;;;;;;11.65;8.75;;;;;;;9.42;31.71;100547.84;10323476;28;20061;-56
2021/03/07 18:32:10;;;;;;;8.60;7.90;;;;;;;8.93;35.54;100568.09;10324079;28;20069;-55
2021/03/07 18:37:13;;;;;;;9.25;8.32;;;;;;;8.34;39.42;100592.31;10324875;28;20079;-55
2021/03/07 18:42:20;;;;;;;10.82;9.85;;;;;;;8.04;41.48;100569.50;10322521;28;20139;-53
2021/03/07 18:47:21;;;;;;;9.35;8.43;;;;;;;7.78;43.54;100585.28;10320260;28;20061;-54
2021/03/07 18:52:22;;;;;;;9.00;8.05;;;;;;;7.92;44.00;100576.44;10323002;28;20046;-55
2021/03/07 18:57:32;;;;;;;10.02;9.07;;;;;;;7.70;41.91;100563.75;10324027;28;20728;-55
2021/03/07 19:02:34;;;;;;;9.07;8.32;;;;;;;7.49;42.49;100578.31;10327858;28;20065;-56
2021/03/07 19:07:55;;;;;;;9.35;8.65;;;;;;;7.10;43.64;100590.41;10318384;28;20050;-55
2021/03/07 19:12:57;;;;;;;10.00;8.88;;;;;;;6.96;44.04;100591.25;10322161;28;20066;-56
2021/03/07 19:17:58;;;;;;;10.02;9.13;;;;;;;6.76;44.16;100587.16;10320888;28;21156;-56
2021/03/07 19:23:01;;;;;;;10.00;9.10;;;;;;;6.89;44.32;100601.34;10323352;28;20046;-56
2021/03/07 19:28:03;;;;;;;10.02;9.02;;;;;;;6.75;44.58;100614.56;10323914;28;20069;-56
2021/03/07 19:33:05;;;;;;;9.98;9.07;;;;;;;6.71;44.18;100620.03;10322684;28;20399;-56
2021/03/07 19:38:06;;;;;;;9.02;8.23;;;;;;;6.53;44.77;100610.50;10303002;23;20078;-61
2021/03/07 19:43:08;;;;;;;8.77;8.05;;;;;;;6.44;45.03;100622.47;10272780;28;21019;-61
2021/03/07 19:48:09;;;;;;;9.20;8.40;;;;;;;6.30;45.38;100615.31;10240593;28;20061;-61
2021/03/07 19:53:11;;;;;;;10.35;8.30;;;;;;;6.35;47.67;100618.56;10238967;28;20051;-54
2021/03/07 19:58:23;;;;;;;10.63;9.63;;;;;;;6.67;44.21;100617.66;10238393;28;20126;-53
2021/03/07 20:03:24;;;;;;;15.18;12.00;;;;;;;6.69;44.32;100637.75;10239448;28;20165;-54
2021/03/07 20:08:25;;;;;;;12.43;11.27;;;;;;;6.73;43.55;100643.75;10238647;28;20419;-54
2021/03/07 20:13:27;;;;;;;9.35;8.45;;;;;;;6.67;43.86;100655.53;10236985;28;20142;-55
2021/03/07 20:18:28;;;;;;;9.18;8.27;;;;;;;6.40;44.61;100646.56;10236909;28;20054;-54
2021/03/07 20:23:30;;;;;;;9.38;8.68;;;;;;;6.29;44.33;100640.06;10252135;28;20050;-61
2021/03/07 20:28:44;;;;;;;9.80;8.90;;;;;;;6.23;44.79;100660.69;10235846;28;20116;-60
2021/03/07 20:33:46;;;;;;;9.93;8.95;;;;;;;6.22;44.76;100670.44;10236048;28;20118;-61
2021/03/07 20:38:47;;;;;;;9.63;8.73;;;;;;;6.06;45.19;100667.78;10237671;28;20133;-60
2021/03/07 20:43:49;;;;;;;9.38;8.52;;;;;;;6.03;45.18;100675.88;10238101;28;20089;-59
2021/03/07 20:48:51;;;;;;;8.90;8.10;;;;;;;5.92;45.33;100684.34;10236353;28;20049;-61
2021/03/07 20:53:52;;;;;;;13.25;10.13;;;;;;;5.89;45.76;100679.25;10233816;28;20058;-59
2021/03/07 20:59:10;;;;;;;10.77;8.57;;;;;;;5.87;45.43;100680.25;10232734;28;20193;-60
2021/03/07 21:04:11;;;;;;;9.18;8.30;;;;;;;5.70;46.05;100689.09;10236873;28;20057;-61
2021/03/07 21:09:13;;;;;;;8.00;7.20;;;;;;;5.53;46.30;100682.06;10233624;28;21184;-58
2021/03/07 21:14:14;;;;;;;8.07;7.28;;;;;;;5.56;45.97;100681.91;10236440;28;20733;-59
2021/03/07 21:19:15;;;;;;;8.43;7.68;;;;;;;5.52;45.63;100683.84;10234264;28;20113;-58
2021/03/07 21:24:16;;;;;;;12.27;10.65;;;;;;;5.55;45.73;100688.94;10236486;28;20129;-59
2021/03/07 21:29:33;;;;;;;8.50;7.70;;;;;;;5.48;45.72;100684.94;10234182;28;20050;-59
2021/03/07 21:34:36;;;;;;;8.60;7.80;;;;;;;5.41;45.94;100691.47;10234980;28;21802;-59
2021/03/07 21:39:37;;;;;;;8.95;8.25;;;;;;;5.30;46.13;100694.69;10236479;28;20141;-58
2021/03/07 21:44:38;;;;;;;8.32;7.47;;;;;;;5.23;46.06;100695.91;10235710;28;20193;-59
2021/03/07 21:49:40;;;;;;;9.90;8.90;;;;;;;4.96;46.81;100694.59;10243642;28;20135;-60
2021/03/07 21:54:41;;;;;;;7.30;6.65;;;;;;;5.14;46.52;100690.16;10258271;28;20050;-59
2021/03/07 21:59:52;;;;;;;8.27;7.57;;;;;;;5.09;46.35;100699.28;10264643;28;20519;-60
2021/03/07 22:04:53;;;;;;;8.00;7.30;;;;;;;5.07;46.64;100706.38;10260559;28;20062;-60
2021/03/07 22:09:54;;;;;;;8.98;8.20;;;;;;;4.91;46.92;100712.44;10259761;28;20055;-60
2021/03/07 22:14:56;;;;;;;8.63;7.85;;;;;;;4.91;47.30;100712.44;10260551;28;20070;-59
2021/03/07 22:19:57;;;;;;;8.50;7.70;;;;;;;4.94;47.26;100709.66;10257884;28;20066;-59
2021/03/07 22:24:58;;;;;;;9.07;8.27;;;;;;;4.84;47.58;100711.03;10261001;28;20106;-59
2021/03/07 22:30:16;;;;;;;8.65;7.75;;;;;;;4.79;47.56;100713.06;10267583;28;20608;-59
2021/03/07 22:35:17;;;;;;;7.85;7.18;;;;;;;4.79;47.15;100705.13;10274031;28;20106;-59
2021/03/07 22:40:18;;;;;;;7.68;6.97;;;;;;;4.73;47.58;100708.06;10270363;28;20070;-58
2021/03/07 22:45:20;;;;;;;7.88;7.28;;;;;;;4.70;47.21;100714.34;10282793;28;20234;-59
2021/03/07 22:50:21;;;;;;;8.85;7.95;;;;;;;4.61;47.78;100696.34;10276799;28;20105;-62
2021/03/07 22:55:23;;;;;;;8.48;7.68;;;;;;;4.66;47.88;100711.94;10273811;28;20074;-59
2021/03/07 23:00:37;;;;;;;7.65;7.00;;;;;;;4.63;47.90;100717.38;10269018;28;20187;-60
2021/03/07 23:05:39;;;;;;;7.53;6.93;;;;;;;4.66;47.73;100706.66;10263963;28;20480;-58
2021/03/07 23:10:41;;;;;;;9.02;7.28;;;;;;;4.53;48.04;100701.97;10265098;28;22473;-58
2021/03/07 23:15:42;;;;;;;8.43;7.72;;;;;;;4.59;47.56;100691.16;10267149;28;20605;-60
2021/03/07 23:20:44;;;;;;;8.02;7.22;;;;;;;4.58;47.50;100686.78;10273575;28;20494;-59
2021/03/07 23:25:45;;;;;;;7.88;7.18;;;;;;;4.42;47.92;100688.47;10269105;28;20078;-60